Royalton, New York
Current Conditions -  °F | °C
As of 11:54 PM on Saturday 22 Nov 2014 (Local Time) from KBUF Reporting Station
Overcast Overcast  
Wind Chill:   Ceiling: 3200
Heat Index:   Visibility: 9mi
Dew Point:   Wind: 12mph
Humidity: 86%   Direction: 210°SSW
Pressure: 29.99"   Gusts: NA
Location:  43.1953°N, 78.4825°W
Report Text: KBUF 230454Z 21010KT 9SM OVC032 05/03 A2999 RMK AO2 RAE10B21E34 SLP161 P0001 T00500028 400501056
Loading
Personal Weather Stations






























Interactive Weather Map New forecast layout! Learn more

10-Day Weather Forecast

Advertisements
Track Severe Weather on mobile